MA74 weather

Larson's Seaplane Base
Tyngsboro, Massachusetts, United States

Public forecast

Using degrees Fahrenheit for public forecast. Weather courtesy of forecast.io.

METAR (pilot weather report)

Closest report is Boire Field, 6.9 nm (12.8 km) NW. Retrieved 2019/07/23 16:56 UTC (45 minutes ago):

KASH 231656Z 35008KT 320V030 10SM BKN013 BKN024 OVC041 18/17 A2987 RMK AO2 SLP117 T01780167

TAF (pilot weather forecast)

Closest forecast is Laurence G Hanscom Field, 14.5 nm (26.8 km) SSE. Retrieved 2019/07/23 12:27 UTC (5 hours ago):

TAF KBED 231124Z 2312/2412 03006KT 2SM -RA BR SCT008 OVC025 FM231900 02006KT 4SM BR VCSH OVC030 FM232000 02005KT P6SM OVC035 FM232200 04004KT P6SM OVC050 FM240600 00000KT P6SM OVC025 FM241000 33003KT P6SM BKN050